createdAt,value
2023-03-23T16:02:02.236Z,2.90
2023-03-23T16:04:33.941Z,4.60
2023-03-23T16:07:10.901Z,4.00
2023-03-23T16:09:45.922Z,5.00
2023-03-23T16:12:19.642Z,4.00
2023-03-23T16:14:53.869Z,3.70
2023-03-23T16:17:27.286Z,2.80
2023-03-23T16:20:01.394Z,5.20
2023-03-23T16:22:35.159Z,3.10
2023-03-23T16:25:09.660Z,5.40
2023-03-23T16:27:49.823Z,3.40
2023-03-23T16:30:27.840Z,2.60
2023-03-23T16:33:01.893Z,3.80
2023-03-23T16:35:33.196Z,3.10
2023-03-23T16:38:08.202Z,2.60
2023-03-23T16:40:43.431Z,3.20
2023-03-23T16:43:15.829Z,3.10
2023-03-23T16:45:50.410Z,2.80
2023-03-23T16:48:25.024Z,4.90
2023-03-23T16:50:59.698Z,2.90
2023-03-23T16:53:33.709Z,4.00
2023-03-23T16:56:08.748Z,4.00
2023-03-23T16:58:41.829Z,4.50
2023-03-23T17:01:21.768Z,4.40
2023-03-23T17:03:54.577Z,4.20
2023-03-23T17:06:32.154Z,4.00
2023-03-23T17:09:06.891Z,6.70
2023-03-23T17:11:44.469Z,7.60
2023-03-23T17:14:31.178Z,6.90
2023-03-23T17:17:07.037Z,10.20
2023-03-23T17:19:44.622Z,5.40
2023-03-23T17:22:21.189Z,6.30
2023-03-23T17:24:58.582Z,6.00
2023-03-23T17:27:42.945Z,5.30
2023-03-23T17:30:24.324Z,5.20
2023-03-23T17:33:02.051Z,8.30
2023-03-23T17:35:39.905Z,4.90
2023-03-23T17:38:14.229Z,7.40
2023-03-23T17:40:58.988Z,8.70
2023-03-23T17:43:36.297Z,8.40
2023-03-23T17:46:14.002Z,8.00
2023-03-23T17:48:48.692Z,11.90
2023-03-23T17:54:13.917Z,11.50
2023-03-23T17:59:32.681Z,7.30
2023-03-23T18:02:09.875Z,8.20
2023-03-23T18:04:51.653Z,8.70
2023-03-23T18:07:31.705Z,8.40
2023-03-23T18:10:06.167Z,10.60
2023-03-23T18:12:57.346Z,10.60
2023-03-23T18:15:39.330Z,11.50
2023-03-23T18:18:21.634Z,8.10
2023-03-23T18:21:19.813Z,7.90
2023-03-23T18:23:59.555Z,7.70
2023-03-23T18:27:01.210Z,7.10
2023-03-23T18:29:43.208Z,8.90
2023-03-23T18:32:19.988Z,13.00
2023-03-23T18:35:07.097Z,12.20
2023-03-23T18:37:49.813Z,13.30
2023-03-23T18:40:44.902Z,14.50
2023-03-23T18:43:29.676Z,12.60
2023-03-23T18:46:15.131Z,11.70
2023-03-23T18:48:55.636Z,11.60
2023-03-23T18:51:40.886Z,8.00
2023-03-23T18:54:17.762Z,7.00
2023-03-23T18:57:09.314Z,9.20
2023-03-23T18:59:47.373Z,7.00
2023-03-23T19:02:27.425Z,8.20
2023-03-23T19:08:00.464Z,9.70
2023-03-23T19:10:44.699Z,6.90
2023-03-23T19:13:31.709Z,8.00
2023-03-23T19:16:20.701Z,5.40
2023-03-23T19:19:08.517Z,5.80
2023-03-23T19:22:03.533Z,6.30
2023-03-23T19:24:41.213Z,6.60
2023-03-23T19:27:24.214Z,6.80
2023-03-23T19:30:07.443Z,8.30
2023-03-23T19:32:54.368Z,6.90
2023-03-23T19:35:42.574Z,7.10
2023-03-23T19:38:26.028Z,7.10
2023-03-23T19:41:19.471Z,7.90
2023-03-23T19:44:05.872Z,6.60
2023-03-23T19:46:50.919Z,7.60
2023-03-23T19:50:02.862Z,7.40
2023-03-23T19:52:45.479Z,6.10
2023-03-23T19:55:30.860Z,7.50
2023-03-23T19:58:12.734Z,6.50
2023-03-23T20:00:55.858Z,7.10
2023-03-23T20:03:38.995Z,7.30
2023-03-23T20:06:29.190Z,7.10
2023-03-23T20:09:09.262Z,8.80
2023-03-23T20:11:50.332Z,8.10
2023-03-23T20:14:38.365Z,9.40
2023-03-23T20:17:23.625Z,7.90
2023-03-23T20:20:06.406Z,8.40
2023-03-23T20:23:01.847Z,7.30
2023-03-23T20:25:53.734Z,11.10
2023-03-23T20:28:37.394Z,14.10
2023-03-23T20:31:37.928Z,9.30
2023-03-23T20:34:32.616Z,20.20
2023-03-23T20:37:21.065Z,9.70
2023-03-23T20:40:15.962Z,6.20
2023-03-23T20:43:04.818Z,13.90
2023-03-23T20:46:01.970Z,10.30
2023-03-23T20:49:01.091Z,8.20
2023-03-23T20:51:51.051Z,8.00
2023-03-23T20:54:53.120Z,7.20
2023-03-23T20:57:44.842Z,8.00
2023-03-23T21:00:29.809Z,11.20
2023-03-23T21:03:40.046Z,10.70
2023-03-23T21:06:37.332Z,21.50
2023-03-23T21:09:37.650Z,12.00
2023-03-23T21:12:31.009Z,11.70
2023-03-23T21:15:31.448Z,13.30
2023-03-23T21:18:45.483Z,12.80
2023-03-23T21:21:57.254Z,13.90
2023-03-23T21:25:11.943Z,13.30
2023-03-23T21:28:24.756Z,18.60
2023-03-23T21:31:35.729Z,12.80
2023-03-23T21:34:27.659Z,10.60
2023-03-23T21:37:29.621Z,13.20
2023-03-23T21:40:28.931Z,12.40
2023-03-23T21:43:29.454Z,8.10
2023-03-23T21:46:41.350Z,11.80
2023-03-23T21:49:46.897Z,6.30
2023-03-23T21:52:51.320Z,5.30
2023-03-23T21:56:06.916Z,3.40
2023-03-23T21:59:04.878Z,2.80
2023-03-23T22:02:02.309Z,4.30
2023-03-23T22:04:54.577Z,4.00
2023-03-23T22:07:49.373Z,2.60
2023-03-23T22:10:38.321Z,3.70
2023-03-23T22:13:33.425Z,5.10
2023-03-23T22:16:21.200Z,4.60
2023-03-23T22:19:16.580Z,3.20
2023-03-23T22:22:08.799Z,4.00
2023-03-23T22:25:03.801Z,3.90
2023-03-23T22:27:58.598Z,5.40
2023-03-23T22:31:03.788Z,5.60
2023-03-23T22:33:49.632Z,5.20
2023-03-23T22:36:51.800Z,3.10
2023-03-23T22:39:51.924Z,7.90
2023-03-23T22:43:04.125Z,3.30
2023-03-23T22:46:04.200Z,5.50
2023-03-23T22:49:24.646Z,4.60
2023-03-23T22:52:37.060Z,7.10
2023-03-23T22:55:37.482Z,3.50
2023-03-23T22:58:38.217Z,3.00
2023-03-23T23:01:36.538Z,3.10
2023-03-23T23:04:51.774Z,4.20
2023-03-23T23:07:49.437Z,7.00
2023-03-23T23:10:49.656Z,4.50
2023-03-23T23:13:53.262Z,4.80
2023-03-23T23:17:05.219Z,6.20
2023-03-23T23:20:33.540Z,5.40
2023-03-23T23:23:50.557Z,3.70
2023-03-23T23:27:10.952Z,12.50
2023-03-23T23:30:02.779Z,11.60
2023-03-23T23:33:21.029Z,5.10
2023-03-23T23:40:07.144Z,5.80
2023-03-23T23:43:51.097Z,6.70
2023-03-23T23:47:03.321Z,4.00
2023-03-23T23:50:29.423Z,7.90
2023-03-23T23:53:35.381Z,7.90
2023-03-23T23:56:45.853Z,6.50
2023-03-23T23:59:52.720Z,6.00
